createdAt,value
2022-11-17T00:02:23.968Z,6.32
2022-11-17T00:04:50.606Z,6.36
2022-11-17T00:07:17.157Z,6.37
2022-11-17T00:09:43.773Z,6.35
2022-11-17T00:12:24.597Z,6.34
2022-11-17T00:14:54.666Z,6.33
2022-11-17T00:17:23.892Z,6.33
2022-11-17T00:20:04.037Z,6.33
2022-11-17T00:22:33.629Z,6.34
2022-11-17T00:25:00.640Z,6.35
2022-11-17T00:27:27.376Z,6.36
2022-11-17T00:29:54.187Z,6.39
2022-11-17T00:32:34.644Z,6.40
2022-11-17T00:35:05.472Z,6.38
2022-11-17T00:37:37.383Z,6.40
2022-11-17T00:40:05.615Z,6.43
2022-11-17T00:42:35.263Z,6.47
2022-11-17T00:45:04.457Z,6.54
2022-11-17T00:47:37.363Z,6.61
2022-11-17T00:50:09.299Z,6.65
2022-11-17T00:52:35.812Z,6.62
2022-11-17T00:55:02.288Z,6.64
2022-11-17T00:57:28.774Z,6.66
2022-11-17T00:59:57.350Z,6.69
2022-11-17T01:02:23.907Z,6.76
2022-11-17T01:04:50.342Z,6.83
2022-11-17T01:07:17.022Z,6.85
2022-11-17T01:09:43.516Z,6.82
2022-11-17T01:12:10.157Z,6.78
2022-11-17T01:14:36.689Z,6.67
2022-11-17T01:17:03.301Z,6.58
2022-11-17T01:19:29.867Z,6.56
2022-11-17T01:21:56.334Z,6.53
2022-11-17T01:24:22.922Z,6.54
2022-11-17T01:26:51.080Z,6.52
2022-11-17T01:29:17.615Z,6.50
2022-11-17T01:31:48.384Z,6.45
2022-11-17T01:34:14.841Z,6.41
2022-11-17T01:37:03.146Z,6.37
2022-11-17T01:39:30.776Z,6.33
2022-11-17T01:42:01.525Z,6.34
2022-11-17T01:44:52.053Z,6.39
2022-11-17T01:47:27.756Z,6.44
2022-11-17T01:50:00.507Z,6.43
2022-11-17T01:52:30.581Z,6.44
2022-11-17T01:54:59.152Z,6.49
2022-11-17T01:57:35.858Z,6.55
2022-11-17T02:00:05.674Z,6.61
2022-11-17T02:02:33.906Z,6.67
2022-11-17T02:05:15.429Z,6.76
2022-11-17T02:07:44.173Z,6.85
2022-11-17T02:10:10.716Z,6.91
2022-11-17T02:12:38.089Z,6.94
2022-11-17T02:15:05.352Z,6.96
2022-11-17T02:17:38.116Z,6.93
2022-11-17T02:20:11.883Z,6.90
2022-11-17T02:22:59.875Z,6.83
2022-11-17T02:25:44.682Z,6.79
2022-11-17T02:28:35.617Z,6.77
2022-11-17T02:31:20.047Z,6.75
2022-11-17T02:34:13.774Z,6.70
2022-11-17T02:36:57.221Z,6.63
2022-11-17T02:39:31.313Z,6.60
2022-11-17T02:42:08.547Z,6.53
2022-11-17T02:44:43.866Z,6.46
2022-11-17T02:47:15.138Z,6.43
2022-11-17T02:49:47.950Z,6.45
2022-11-17T02:52:17.017Z,6.45
2022-11-17T02:54:43.606Z,6.45
2022-11-17T02:57:28.138Z,6.41
2022-11-17T02:59:55.956Z,6.45
2022-11-17T03:02:33.513Z,6.47
2022-11-17T03:05:12.152Z,6.49
2022-11-17T03:08:04.266Z,6.56
2022-11-17T03:10:47.836Z,6.63
2022-11-17T03:13:30.654Z,6.66
2022-11-17T03:16:23.090Z,6.68
2022-11-17T03:19:18.935Z,6.73
2022-11-17T03:21:56.233Z,6.79
2022-11-17T03:24:29.268Z,6.83
2022-11-17T03:27:03.231Z,6.87
2022-11-17T03:29:32.895Z,6.92
2022-11-17T03:32:05.027Z,6.93
2022-11-17T03:34:37.810Z,6.91
2022-11-17T03:37:08.739Z,6.92
2022-11-17T03:39:40.140Z,6.92
2022-11-17T03:42:18.648Z,6.93
2022-11-17T03:44:50.529Z,6.91
2022-11-17T03:47:20.227Z,6.88
2022-11-17T03:49:57.058Z,6.84
2022-11-17T03:52:24.761Z,6.78
2022-11-17T03:54:52.546Z,6.77
2022-11-17T03:57:31.961Z,6.77
2022-11-17T04:00:08.875Z,6.76
2022-11-17T04:02:46.331Z,6.72
2022-11-17T04:05:16.468Z,6.67
2022-11-17T04:07:45.426Z,6.63
2022-11-17T04:10:17.294Z,6.59
2022-11-17T04:12:57.963Z,6.56
2022-11-17T04:15:38.226Z,6.57
2022-11-17T04:18:04.969Z,6.60
2022-11-17T04:20:35.306Z,6.63
2022-11-17T04:23:08.078Z,6.63
2022-11-17T04:25:48.735Z,6.62
2022-11-17T04:28:28.906Z,6.69
2022-11-17T04:30:55.530Z,6.76
2022-11-17T04:33:21.966Z,6.81
2022-11-17T04:35:50.155Z,6.85
2022-11-17T04:38:16.590Z,6.88
2022-11-17T04:41:05.853Z,6.93
2022-11-17T04:43:32.435Z,6.99
2022-11-17T04:46:00.345Z,7.04
2022-11-17T04:48:27.897Z,7.07
2022-11-17T04:50:55.562Z,7.07
2022-11-17T04:53:23.134Z,7.04
2022-11-17T04:55:49.982Z,6.96
2022-11-17T04:58:16.996Z,6.90
2022-11-17T05:00:43.465Z,6.83
2022-11-17T05:03:10.079Z,6.75
2022-11-17T05:05:36.595Z,6.65
2022-11-17T05:08:03.384Z,6.56
2022-11-17T05:10:41.633Z,6.52
2022-11-17T05:13:21.191Z,6.51
2022-11-17T05:16:01.989Z,6.51
2022-11-17T05:18:28.685Z,6.51
2022-11-17T05:21:01.774Z,6.52
2022-11-17T05:23:42.411Z,6.66
2022-11-17T05:26:08.818Z,6.72
2022-11-17T05:28:35.505Z,6.76
2022-11-17T05:31:02.095Z,6.78
2022-11-17T05:33:32.348Z,6.79
2022-11-17T05:36:01.465Z,6.79
2022-11-17T05:38:28.010Z,6.83
2022-11-17T05:40:54.356Z,6.86
2022-11-17T05:43:20.833Z,6.88
2022-11-17T05:45:47.734Z,6.88
2022-11-17T05:48:14.655Z,6.86
2022-11-17T05:50:41.511Z,6.85
2022-11-17T05:53:09.474Z,6.83
2022-11-17T05:55:36.152Z,6.78
2022-11-17T05:58:10.662Z,6.69
2022-11-17T06:00:39.993Z,6.61
2022-11-17T06:03:25.046Z,6.55
2022-11-17T06:05:53.175Z,6.50
2022-11-17T06:08:19.958Z,6.48
2022-11-17T06:10:46.525Z,6.47
2022-11-17T06:13:25.256Z,6.46
2022-11-17T06:15:54.675Z,6.44
2022-11-17T06:18:26.136Z,6.44
2022-11-17T06:20:53.218Z,6.46
2022-11-17T06:23:22.177Z,6.49
2022-11-17T06:25:49.220Z,6.53
2022-11-17T06:28:19.173Z,6.57
2022-11-17T06:30:45.872Z,6.62
2022-11-17T06:33:15.065Z,6.66
2022-11-17T06:35:43.606Z,6.71
2022-11-17T06:38:10.232Z,6.76
2022-11-17T06:40:36.789Z,6.80
2022-11-17T06:43:06.211Z,6.85
2022-11-17T06:45:40.398Z,6.90
2022-11-17T06:48:08.108Z,6.91
2022-11-17T06:50:34.710Z,6.90
2022-11-17T06:53:06.890Z,6.86
2022-11-17T06:55:34.111Z,6.82
2022-11-17T06:58:34.402Z,6.76
2022-11-17T07:01:10.810Z,6.71
2022-11-17T07:03:39.339Z,6.66
2022-11-17T07:06:07.546Z,6.63
2022-11-17T07:08:40.047Z,6.61
2022-11-17T07:11:11.172Z,6.61
2022-11-17T07:13:41.963Z,6.64
2022-11-17T07:16:35.840Z,6.71
2022-11-17T07:19:10.668Z,6.77
2022-11-17T07:21:41.288Z,6.84
2022-11-17T07:24:18.792Z,6.90
2022-11-17T07:26:49.837Z,6.94
2022-11-17T07:29:16.774Z,6.98
2022-11-17T07:31:49.668Z,7.05
2022-11-17T07:34:55.039Z,7.09
2022-11-17T07:37:39.172Z,7.12
2022-11-17T07:40:09.261Z,7.11
2022-11-17T07:42:40.922Z,7.11
2022-11-17T07:45:18.890Z,7.08
2022-11-17T07:50:15.202Z,7.05
2022-11-17T07:56:55.126Z,6.95
2022-11-17T08:02:42.559Z,6.99
2022-11-17T08:21:05.327Z,8.18
2022-11-17T08:23:59.990Z,8.39
2022-11-17T08:26:37.552Z,8.42
2022-11-17T08:42:33.573Z,8.57
2022-11-17T08:46:24.734Z,8.63
2022-11-17T09:04:44.315Z,9.64
2022-11-17T09:16:12.049Z,9.79
2022-11-17T09:20:45.361Z,9.82
2022-11-17T09:23:05.016Z,9.44
2022-11-17T09:25:36.319Z,9.38
2022-11-17T09:28:21.107Z,9.35
2022-11-17T10:15:25.991Z,9.79
2022-11-17T10:17:58.662Z,9.83
2022-11-17T10:20:49.989Z,9.78
2022-11-17T10:23:41.281Z,9.64
2022-11-17T10:26:20.624Z,9.71
2022-11-17T10:29:08.664Z,9.57
2022-11-17T10:31:43.909Z,9.45
2022-11-17T10:34:31.946Z,9.39
2022-11-17T10:37:35.540Z,9.39
2022-11-17T10:40:22.083Z,9.35
2022-11-17T10:43:20.653Z,9.42
2022-11-17T10:45:50.636Z,9.33
2022-11-17T10:48:29.872Z,9.37
2022-11-17T10:51:00.453Z,9.38
2022-11-17T10:54:39.870Z,9.36
2022-11-17T10:56:58.200Z,9.25
2022-11-17T10:59:44.583Z,9.17
2022-11-17T11:02:28.843Z,9.07
2022-11-17T11:05:17.333Z,9.01
2022-11-17T11:08:20.830Z,8.88
2022-11-17T11:12:16.647Z,8.82
2022-11-17T11:14:57.973Z,8.68
2022-11-17T11:17:52.601Z,8.59
2022-11-17T11:21:16.318Z,8.58
2022-11-17T11:24:15.454Z,8.51
2022-11-17T11:27:03.173Z,8.47
2022-11-17T11:29:55.419Z,8.47
2022-11-17T11:33:07.619Z,8.45
2022-11-17T11:36:25.791Z,8.42
2022-11-17T11:39:18.433Z,8.46
2022-11-17T11:42:29.279Z,8.44
2022-11-17T11:50:08.461Z,8.40
2022-11-17T12:32:52.925Z,8.58
2022-11-17T12:35:34.028Z,8.46
2022-11-17T12:38:33.830Z,8.43
2022-11-17T12:41:03.514Z,8.43
2022-11-17T12:43:44.350Z,8.46
2022-11-17T12:46:25.939Z,8.44
2022-11-17T12:49:08.698Z,8.49
2022-11-17T12:51:50.617Z,8.45
2022-11-17T12:54:54.152Z,8.55
2022-11-17T12:57:44.545Z,8.64
2022-11-17T13:00:25.982Z,8.70
2022-11-17T13:03:19.015Z,8.73
2022-11-17T13:06:35.040Z,8.71
2022-11-17T13:09:11.532Z,8.65
2022-11-17T13:11:38.539Z,8.57
2022-11-17T13:14:10.518Z,8.48
2022-11-17T13:16:49.790Z,8.38
2022-11-17T13:19:44.538Z,8.29
2022-11-17T13:22:19.037Z,8.27
2022-11-17T13:24:48.065Z,8.27
2022-11-17T13:27:30.092Z,8.30
2022-11-17T13:37:02.571Z,8.13
2022-11-17T13:39:30.487Z,8.14
2022-11-17T13:42:07.114Z,8.13
2022-11-17T13:53:22.006Z,8.03
2022-11-17T13:54:54.542Z,8.06
2022-11-17T13:57:49.341Z,7.95
2022-11-17T14:00:04.514Z,7.92
2022-11-17T14:03:23.570Z,7.92
2022-11-17T14:06:24.630Z,7.93
2022-11-17T14:09:18.545Z,7.93
2022-11-17T14:21:19.989Z,7.92
2022-11-17T14:24:26.333Z,7.92
2022-11-17T14:27:21.523Z,7.92
2022-11-17T14:30:09.869Z,7.90
2022-11-17T14:33:09.029Z,7.89
2022-11-17T14:36:10.153Z,7.86
2022-11-17T14:39:18.306Z,7.85
2022-11-17T14:42:32.871Z,7.86
2022-11-17T14:47:12.928Z,7.87
2022-11-17T14:49:50.743Z,7.88
2022-11-17T14:52:54.961Z,7.85
2022-11-17T14:56:33.351Z,7.84
2022-11-17T14:58:35.838Z,7.79
2022-11-17T15:01:11.560Z,7.77
2022-11-17T15:03:38.453Z,7.72
2022-11-17T15:06:18.198Z,7.66
2022-11-17T15:08:57.620Z,7.63
2022-11-17T15:11:56.103Z,7.63
2022-11-17T15:14:41.892Z,7.63
2022-11-17T15:17:14.749Z,7.63
2022-11-17T15:19:41.988Z,7.65
2022-11-17T15:22:09.569Z,7.66
2022-11-17T15:24:36.240Z,7.68
2022-11-17T15:27:14.218Z,7.70
2022-11-17T15:29:41.480Z,7.73
2022-11-17T15:32:08.009Z,7.75
2022-11-17T15:34:34.781Z,7.76
2022-11-17T15:37:07.076Z,7.74
2022-11-17T15:39:37.681Z,7.73
2022-11-17T15:42:07.124Z,7.70
2022-11-17T15:44:51.447Z,7.67
2022-11-17T15:47:22.894Z,7.62
2022-11-17T15:49:59.189Z,7.58
2022-11-17T15:53:02.912Z,7.53
2022-11-17T15:55:34.282Z,7.49
2022-11-17T15:58:03.495Z,7.48
2022-11-17T16:00:33.106Z,7.48
2022-11-17T16:02:59.735Z,7.49
2022-11-17T16:05:26.328Z,7.51
2022-11-17T16:07:52.998Z,7.53
2022-11-17T16:10:19.737Z,7.55
2022-11-17T16:12:48.877Z,7.57
2022-11-17T16:15:17.228Z,7.59
2022-11-17T16:17:43.983Z,7.60
2022-11-17T16:20:10.857Z,7.60
2022-11-17T16:22:37.415Z,7.58
2022-11-17T16:25:04.910Z,7.56
2022-11-17T16:27:32.151Z,7.54
2022-11-17T16:29:58.653Z,7.51
2022-11-17T16:32:25.227Z,7.47
2022-11-17T16:34:51.788Z,7.43
2022-11-17T16:37:18.280Z,7.39
2022-11-17T16:39:45.068Z,7.34
2022-11-17T16:42:11.932Z,7.31
2022-11-17T16:44:38.396Z,7.28
2022-11-17T16:47:04.906Z,7.24
2022-11-17T16:49:34.286Z,7.24
2022-11-17T16:52:00.758Z,7.26
2022-11-17T16:54:27.322Z,7.26
2022-11-17T16:56:53.834Z,7.28
2022-11-17T16:59:21.258Z,7.31
2022-11-17T17:01:47.818Z,7.32
2022-11-17T17:04:14.322Z,7.33
2022-11-17T17:06:43.346Z,7.31
2022-11-17T17:09:11.784Z,7.29
2022-11-17T17:11:38.545Z,7.27
2022-11-17T17:14:07.660Z,7.26
2022-11-17T17:16:35.651Z,7.26
2022-11-17T17:19:04.738Z,7.25
2022-11-17T17:21:32.645Z,7.21
2022-11-17T17:23:59.296Z,7.17
2022-11-17T17:26:28.242Z,7.13
2022-11-17T17:28:56.880Z,7.08
2022-11-17T17:31:25.439Z,7.06
2022-11-17T17:33:53.628Z,7.05
2022-11-17T17:36:23.281Z,7.07
2022-11-17T17:38:55.504Z,7.09
2022-11-17T17:41:26.015Z,7.12
2022-11-17T17:43:57.584Z,7.14
2022-11-17T17:46:24.965Z,7.14
2022-11-17T17:48:51.922Z,7.14
2022-11-17T17:51:20.266Z,7.11
2022-11-17T17:53:49.303Z,7.09
2022-11-17T17:56:18.003Z,7.07
2022-11-17T17:58:46.137Z,7.07
2022-11-17T18:01:15.237Z,7.04
2022-11-17T18:03:45.112Z,7.00
2022-11-17T18:06:12.666Z,6.94
2022-11-17T18:08:39.116Z,6.89
2022-11-17T18:11:07.880Z,6.83
2022-11-17T18:13:37.200Z,6.78
2022-11-17T18:16:05.685Z,6.72
2022-11-17T18:18:34.455Z,6.68
2022-11-17T18:21:04.427Z,6.64
2022-11-17T18:23:33.692Z,6.59
2022-11-17T18:26:17.682Z,6.54
2022-11-17T18:28:56.456Z,6.48
2022-11-17T18:31:25.961Z,6.46
2022-11-17T18:33:54.539Z,6.46
2022-11-17T18:36:21.251Z,6.46
2022-11-17T18:38:48.530Z,6.47
2022-11-17T18:41:17.656Z,6.46
2022-11-17T18:43:44.724Z,6.45
2022-11-17T18:46:13.739Z,6.46
2022-11-17T18:48:43.010Z,6.48
2022-11-17T18:51:20.545Z,6.51
2022-11-17T18:53:49.256Z,6.56
2022-11-17T18:56:19.908Z,6.60
2022-11-17T18:58:46.682Z,6.64
2022-11-17T19:01:18.189Z,6.70
2022-11-17T19:03:49.232Z,6.75
2022-11-17T19:06:17.228Z,6.80
2022-11-17T19:08:44.791Z,6.83
2022-11-17T19:11:11.795Z,6.83
2022-11-17T19:13:40.682Z,6.82
2022-11-17T19:16:12.378Z,6.78
2022-11-17T19:18:39.986Z,6.70
2022-11-17T19:21:10.708Z,6.61
2022-11-17T19:23:39.492Z,6.53
2022-11-17T19:26:08.952Z,6.46
2022-11-17T19:28:36.166Z,6.42
2022-11-17T20:32:46.210Z,6.61
2022-11-17T21:51:32.160Z,6.11
2022-11-17T21:57:40.206Z,6.16
2022-11-17T22:04:25.576Z,6.25
2022-11-17T22:31:01.732Z,6.63
2022-11-17T22:34:28.819Z,6.52
2022-11-17T22:37:50.958Z,6.46
2022-11-17T22:41:05.953Z,6.43
2022-11-17T23:35:05.575Z,6.69
